Home   Weather   Russia   Ufa   Past weeks
Flag for Russia

Past Weather in Ufa, Russia — Yesterday and Last 2 Weeks

Currently: 63 °F. Passing clouds. (Weather station: Ufa, Russia). See more current weather

Past Weather in Ufa — Graph

°F

Ufa Temperature Yesterday

Maximum temperature yesterday: 75 °F (at 3:00 pm)
Minimum temperature yesterday: 54 °F (at 4:30 am)
Average temperature yesterday: 66 °F

High & Low Weather Summary for the Past Weeks

 TemperatureHumidityPressure
High84 °F (Jul 10, 2:30 pm)100% (Jul 9, 11:30 pm)30.01 "Hg (Jul 9, 11:30 pm)
Low54 °F (Jul 24, 4:30 am)39% (Jul 24, 3:00 pm)29.56 "Hg (Jul 22, 6:09 am)
Average68 °F77%29.79 "Hg
* Reported Jul 9 11:00 pm — Jul 24 11:00 pm, Ufa. Weather by CustomWeather, © 2024

Note: Actual official high and low records may vary slightly from our data, if they occured in-between our weather recording intervals... More about our weather records

Ufa Weather History for the Previous 24 Hours

Scroll right to see more
 ConditionsComfort  
Time TempWeatherWind HumidityBarometerVisibility
11:00 pm
Wed, Jul 24
63 °FPassing clouds.No wind77%29.62 "HgN/A
10:30 pm63 °FPartly sunny.3 mph77%29.62 "HgN/A
10:00 pm66 °FPartly sunny.No wind68%29.62 "HgN/A
9:30 pm66 °FPartly sunny.No wind64%29.65 "HgN/A
9:00 pm70 °FPartly sunny.No wind50%29.62 "HgN/A
7:30 pm72 °FPartly sunny.8 mph47%29.65 "HgN/A
7:00 pm72 °FPartly sunny.8 mph47%29.65 "HgN/A
6:30 pm72 °FPartly sunny.8 mph47%29.65 "HgN/A
6:00 pm73 °FPartly sunny.6 mph44%29.65 "HgN/A
5:30 pm73 °FPartly sunny.3 mph41%29.65 "HgN/A
5:00 pm73 °FPartly sunny.3 mph44%29.65 "HgN/A
4:30 pm75 °FPartly sunny.6 mph44%29.68 "HgN/A
4:00 pm75 °FPartly sunny.1 mph39%29.68 "HgN/A
3:30 pm75 °FPartly sunny.8 mph41%29.68 "HgN/A
3:00 pm75 °FPartly sunny.6 mph39%29.68 "HgN/A
2:30 pm72 °FPartly sunny.6 mph44%29.68 "HgN/A
2:00 pm72 °FPartly sunny.6 mph47%29.68 "HgN/A
1:30 pm73 °FPartly sunny.3 mph47%29.68 "HgN/A
1:00 pm72 °FPartly sunny.1 mph44%29.71 "HgN/A
12:30 pm72 °FScattered clouds.3 mph41%29.71 "HgN/A
12:00 pm72 °FScattered clouds.6 mph44%29.71 "HgN/A
11:30 am70 °FScattered clouds.6 mph57%29.71 "HgN/A
11:00 am70 °FScattered clouds.6 mph60%29.71 "HgN/A
10:30 am68 °FPassing clouds.3 mph69%29.71 "HgN/A
10:00 am68 °FPassing clouds.3 mph69%29.74 "HgN/A
9:30 am66 °FScattered clouds.3 mph73%29.74 "HgN/A
9:00 am64 °FScattered clouds.3 mph78%29.74 "HgN/A
8:30 am63 °FScattered clouds.3 mph83%29.74 "HgN/A
8:00 am63 °FScattered clouds.1 mph83%29.74 "HgN/A
7:30 am59 °FScattered clouds.3 mph94%29.74 "HgN/A
7:00 am55 °FScattered clouds.3 mph100%29.74 "HgN/A
6:30 am54 °FFog.6 mph100%29.74 "Hg3 mi
6:00 am54 °FFog.3 mph100%29.74 "Hg2 mi
5:30 am54 °FFog.1 mph100%29.74 "Hg3 mi
5:00 am54 °FClear.3 mph94%29.74 "Hg4 mi
4:30 am54 °FFog.6 mph94%29.74 "HgN/A
4:00 am55 °FClear.1 mph100%29.74 "Hg10 mi
3:30 am57 °FClear.1 mph88%29.74 "Hg10 mi
3:00 am59 °FClear.1 mph88%29.74 "Hg10 mi
2:30 am55 °FClear.No wind94%29.74 "Hg10 mi
2:00 am59 °FClear.1 mph88%29.74 "Hg10 mi
1:30 am63 °FPassing clouds.1 mph77%29.74 "HgN/A
1:00 am63 °FPassing clouds.8 mph77%29.74 "HgN/A
12:30 am64 °FPassing clouds.6 mph73%29.74 "HgN/A
12:00 am64 °FPassing clouds.6 mph73%29.77 "HgN/A
Weather by CustomWeather, © 2024

See weather overview